createdAt,value
2019-03-18T00:00:24.677Z,71.44
2019-03-18T00:02:53.329Z,71.93
2019-03-18T00:05:22.060Z,71.00
2019-03-18T00:07:50.617Z,72.09
2019-03-18T00:10:19.197Z,71.48
2019-03-18T00:12:47.769Z,71.86
2019-03-18T00:15:16.392Z,71.93
2019-03-18T00:17:45.090Z,72.40
2019-03-18T00:20:13.667Z,74.25
2019-03-18T00:22:42.208Z,73.17
2019-03-18T00:25:15.695Z,71.64
2019-03-18T00:27:44.968Z,71.50
2019-03-18T00:30:17.727Z,71.98
2019-03-18T00:32:46.346Z,71.80
2019-03-18T00:35:15.073Z,72.87
2019-03-18T00:37:43.649Z,72.88
2019-03-18T00:40:16.461Z,72.83
2019-03-18T00:42:44.962Z,72.49
2019-03-18T00:45:15.024Z,72.72
2019-03-18T00:47:44.190Z,72.19
2019-03-18T00:50:16.665Z,72.33
2019-03-18T00:52:45.257Z,72.28
2019-03-18T00:55:14.150Z,72.41
2019-03-18T00:57:42.743Z,74.13
2019-03-18T01:00:15.892Z,72.39
2019-03-18T01:02:44.587Z,72.17
2019-03-18T01:05:13.207Z,72.31
2019-03-18T01:07:41.776Z,72.47
2019-03-18T01:10:12.176Z,72.68
2019-03-18T01:12:40.786Z,72.81
2019-03-18T01:15:10.691Z,72.52
2019-03-18T01:17:39.279Z,72.68
2019-03-18T01:20:15.077Z,73.06
2019-03-18T01:22:43.663Z,73.31
2019-03-18T01:25:12.364Z,73.47
2019-03-18T01:27:41.620Z,73.28
2019-03-18T01:30:14.228Z,73.71
2019-03-18T01:32:42.812Z,75.73
2019-03-18T01:35:11.832Z,74.21
2019-03-18T01:37:40.398Z,73.90
2019-03-18T01:40:16.086Z,72.47
2019-03-18T01:42:44.579Z,73.01
2019-03-18T01:45:13.156Z,73.54
2019-03-18T01:47:41.550Z,73.08
2019-03-18T01:50:14.006Z,73.57
2019-03-18T01:52:42.520Z,74.17
2019-03-18T01:55:11.123Z,73.34
2019-03-18T01:57:39.721Z,73.45
2019-03-18T02:00:11.200Z,73.28
2019-03-18T02:02:39.766Z,73.34
2019-03-18T02:05:09.821Z,73.89
2019-03-18T02:07:38.409Z,74.90
2019-03-18T02:10:16.730Z,74.58
2019-03-18T02:12:45.359Z,73.59
2019-03-18T02:15:14.622Z,73.45
2019-03-18T02:17:43.459Z,72.56
2019-03-18T02:20:14.412Z,73.58
2019-03-18T02:22:43.066Z,73.33
2019-03-18T02:25:12.056Z,74.40
2019-03-18T02:27:40.707Z,73.51
2019-03-18T02:30:14.502Z,73.90
2019-03-18T02:32:43.153Z,73.05
2019-03-18T02:35:11.927Z,74.02
2019-03-18T02:37:40.542Z,73.86
2019-03-18T02:40:12.676Z,73.46
2019-03-18T02:42:41.340Z,73.54
2019-03-18T02:45:12.826Z,76.41
2019-03-18T02:47:41.388Z,72.18
2019-03-18T02:50:10.584Z,72.17
2019-03-18T02:52:39.214Z,71.79
2019-03-18T02:55:08.757Z,72.48
2019-03-18T02:57:37.435Z,72.70
2019-03-18T03:00:11.363Z,74.59
2019-03-18T03:02:39.988Z,75.21
2019-03-18T03:05:10.765Z,74.95
2019-03-18T03:07:40.392Z,74.59
2019-03-18T03:10:10.930Z,74.77
2019-03-18T03:12:40.470Z,75.71
2019-03-18T03:15:11.207Z,75.97
2019-03-18T03:17:39.816Z,76.25
2019-03-18T03:20:10.467Z,77.56
2019-03-18T03:22:39.041Z,76.78
2019-03-18T03:25:09.410Z,75.97
2019-03-18T03:27:38.210Z,76.03
2019-03-18T03:30:09.736Z,75.75
2019-03-18T03:32:38.320Z,75.22
2019-03-18T03:35:07.509Z,75.93
2019-03-18T03:37:36.087Z,75.95
2019-03-18T03:40:06.493Z,76.44
2019-03-18T03:42:35.094Z,75.77
2019-03-18T03:45:04.435Z,75.51
2019-03-18T03:47:33.089Z,75.80
2019-03-18T03:50:01.718Z,75.76
2019-03-18T03:52:30.271Z,76.22
2019-03-18T03:54:58.715Z,76.22
2019-03-18T03:57:27.477Z,79.23
2019-03-18T03:59:57.102Z,75.98
2019-03-18T04:02:25.600Z,75.39
2019-03-18T04:04:54.183Z,75.32
2019-03-18T04:07:22.792Z,75.80
2019-03-18T04:09:51.456Z,74.91
2019-03-18T04:12:20.177Z,75.48
2019-03-18T04:14:48.689Z,75.78
2019-03-18T04:17:17.316Z,75.68
2019-03-18T04:19:45.827Z,76.33
2019-03-18T04:22:14.331Z,75.81
2019-03-18T04:24:42.903Z,75.74
2019-03-18T04:27:11.381Z,75.71
2019-03-18T04:29:39.937Z,75.84
2019-03-18T04:32:08.513Z,76.90
2019-03-18T04:34:37.122Z,76.10
2019-03-18T04:37:05.700Z,74.70
2019-03-18T04:39:34.341Z,74.42
2019-03-18T04:42:02.923Z,74.01
2019-03-18T04:44:31.510Z,75.06
2019-03-18T04:46:59.947Z,75.19
2019-03-18T04:49:28.480Z,75.51
2019-03-18T04:51:57.261Z,75.75
2019-03-18T04:54:25.843Z,76.25
2019-03-18T04:56:54.338Z,76.26
2019-03-18T04:59:22.978Z,76.22
2019-03-18T05:01:52.671Z,75.61
2019-03-18T05:04:21.213Z,75.89
2019-03-18T05:06:49.904Z,75.92
2019-03-18T05:09:18.995Z,77.56
2019-03-18T05:11:47.505Z,76.42
2019-03-18T05:14:16.070Z,76.40
2019-03-18T05:16:44.606Z,76.18
2019-03-18T05:19:13.739Z,76.17
2019-03-18T05:21:42.382Z,76.37
2019-03-18T05:24:11.005Z,77.10
2019-03-18T05:26:39.536Z,75.58
2019-03-18T05:29:08.106Z,74.67
2019-03-18T05:31:36.681Z,76.30
2019-03-18T05:34:05.304Z,75.86
2019-03-18T05:36:34.030Z,76.40
2019-03-18T05:39:02.545Z,76.36
2019-03-18T05:41:31.112Z,76.71
2019-03-18T05:43:59.701Z,78.70
2019-03-18T05:46:28.245Z,77.94
2019-03-18T05:48:56.889Z,76.08
2019-03-18T05:51:25.604Z,75.96
2019-03-18T05:53:54.141Z,75.99
2019-03-18T05:56:22.692Z,76.49
2019-03-18T05:58:51.309Z,77.02
2019-03-18T06:01:19.748Z,77.05
2019-03-18T06:03:48.296Z,77.33
2019-03-18T06:06:16.880Z,77.07
2019-03-18T06:08:45.478Z,76.90
2019-03-18T06:11:14.036Z,76.92
2019-03-18T06:13:42.651Z,76.78
2019-03-18T06:16:11.249Z,76.98
2019-03-18T06:18:39.871Z,77.37
2019-03-18T06:21:08.651Z,78.70
2019-03-18T06:23:37.241Z,77.34
2019-03-18T06:26:05.718Z,75.74
2019-03-18T06:28:34.335Z,75.17
2019-03-18T06:31:02.890Z,76.06
2019-03-18T06:33:31.367Z,76.03
2019-03-18T06:35:59.804Z,76.53
2019-03-18T06:38:28.551Z,76.41
2019-03-18T06:40:57.067Z,75.46
2019-03-18T06:43:25.557Z,75.03
2019-03-18T06:45:54.196Z,76.09
2019-03-18T06:48:22.720Z,76.31
2019-03-18T06:50:51.168Z,76.40
2019-03-18T06:53:19.649Z,76.12
2019-03-18T06:55:48.570Z,76.49
2019-03-18T06:58:17.114Z,76.29
2019-03-18T07:00:45.699Z,73.97
2019-03-18T07:03:14.308Z,72.84
2019-03-18T07:05:42.943Z,73.52
2019-03-18T07:08:11.516Z,72.80
2019-03-18T07:10:40.155Z,72.56
2019-03-18T07:13:08.710Z,73.20
2019-03-18T07:15:37.343Z,72.77
2019-03-18T07:18:17.560Z,72.83
2019-03-18T07:20:36.255Z,71.89
2019-03-18T07:23:04.871Z,71.90
2019-03-18T07:25:33.508Z,71.97
2019-03-18T07:28:02.041Z,71.36
2019-03-18T07:30:30.717Z,71.38
2019-03-18T07:32:59.458Z,72.62
2019-03-18T07:35:28.055Z,69.53
2019-03-18T07:37:56.673Z,68.50
2019-03-18T07:40:25.506Z,69.17
2019-03-18T07:42:54.042Z,68.85
2019-03-18T07:45:22.635Z,68.21
2019-03-18T07:47:51.278Z,68.08
2019-03-18T07:50:19.876Z,67.96
2019-03-18T07:52:48.646Z,67.38
2019-03-18T07:55:17.101Z,66.64
2019-03-18T07:57:45.826Z,65.95
2019-03-18T08:00:15.318Z,65.95
2019-03-18T08:02:43.901Z,66.31
2019-03-18T08:05:12.513Z,67.84
2019-03-18T08:07:41.146Z,71.68
2019-03-18T08:10:13.559Z,67.67
2019-03-18T08:12:42.173Z,66.33
2019-03-18T08:15:11.790Z,67.85
2019-03-18T08:17:40.331Z,68.35
2019-03-18T08:20:12.633Z,68.03
2019-03-18T08:22:41.544Z,68.41
2019-03-18T08:25:10.996Z,68.58
2019-03-18T08:27:40.468Z,68.44
2019-03-18T08:30:16.117Z,68.82
2019-03-18T08:32:44.712Z,68.48
2019-03-18T08:35:13.355Z,68.00
2019-03-18T08:37:42.014Z,67.00
2019-03-18T08:40:12.208Z,68.41
2019-03-18T08:42:40.834Z,66.83
2019-03-18T08:45:13.146Z,69.19
2019-03-18T08:47:41.851Z,68.08
2019-03-18T08:50:12.419Z,67.14
2019-03-18T08:52:41.441Z,64.75
2019-03-18T08:55:10.922Z,65.21
2019-03-18T08:57:39.435Z,64.95
2019-03-18T09:00:11.075Z,64.19
2019-03-18T09:02:39.628Z,65.06
2019-03-18T09:05:09.409Z,63.51
2019-03-18T09:07:38.057Z,64.14
2019-03-18T09:10:16.861Z,64.01
2019-03-18T09:12:45.445Z,64.28
2019-03-18T09:15:14.452Z,63.05
2019-03-18T09:17:43.128Z,62.39
2019-03-18T09:20:15.632Z,62.86
2019-03-18T09:22:44.209Z,59.48
2019-03-18T09:25:13.518Z,58.91
2019-03-18T09:27:42.170Z,58.51
2019-03-18T09:30:19.334Z,58.37
2019-03-18T09:32:48.153Z,59.59
2019-03-18T09:35:16.684Z,58.41
2019-03-18T09:37:45.236Z,58.89
2019-03-18T09:40:17.638Z,58.10
2019-03-18T09:42:46.763Z,60.38
2019-03-18T09:45:16.409Z,59.73
2019-03-18T09:47:45.027Z,59.41
2019-03-18T09:50:13.956Z,60.88
2019-03-18T09:52:43.552Z,61.46
2019-03-18T09:55:12.168Z,65.68
2019-03-18T09:57:40.889Z,60.80
2019-03-18T10:00:17.617Z,59.40
2019-03-18T10:02:46.191Z,58.91
2019-03-18T10:05:14.980Z,59.33
2019-03-18T10:07:43.915Z,60.63
2019-03-18T10:10:13.874Z,61.55
2019-03-18T10:12:42.956Z,63.45
2019-03-18T10:15:17.542Z,62.97
2019-03-18T10:17:46.173Z,62.46
2019-03-18T10:20:14.890Z,61.55
2019-03-18T10:22:43.478Z,60.56
2019-03-18T10:25:12.173Z,62.21
2019-03-18T10:27:40.961Z,62.72
2019-03-18T10:30:11.935Z,67.63
2019-03-18T10:32:40.488Z,62.77
2019-03-18T10:35:09.924Z,61.23
2019-03-18T10:37:38.473Z,62.27
2019-03-18T10:40:14.500Z,61.54
2019-03-18T10:42:43.098Z,61.98
2019-03-18T10:45:12.894Z,60.75
2019-03-18T10:47:41.513Z,60.08
2019-03-18T10:50:12.883Z,58.48
2019-03-18T10:52:41.505Z,58.27
2019-03-18T10:55:10.699Z,57.68
2019-03-18T10:57:39.342Z,57.17
2019-03-18T11:00:20.640Z,56.76
2019-03-18T11:02:49.240Z,54.75
2019-03-18T11:05:17.900Z,62.08
2019-03-18T11:07:46.608Z,55.05
2019-03-18T11:10:16.721Z,54.36
2019-03-18T11:12:45.336Z,53.74
2019-03-18T11:15:23.026Z,53.04
2019-03-18T11:17:51.550Z,53.42
2019-03-18T11:20:20.188Z,55.54
2019-03-18T11:22:48.755Z,55.01
2019-03-18T11:25:17.772Z,54.78
2019-03-18T11:27:46.693Z,55.94
2019-03-18T11:30:17.188Z,56.27
2019-03-18T11:32:45.784Z,56.61
2019-03-18T11:35:15.427Z,54.91
2019-03-18T11:37:44.020Z,54.72
2019-03-18T11:40:15.089Z,57.76
2019-03-18T11:42:43.675Z,53.45
2019-03-18T11:45:14.133Z,51.72
2019-03-18T11:47:43.719Z,50.72
2019-03-18T11:50:17.804Z,49.41
2019-03-18T11:52:46.502Z,48.50
2019-03-18T11:55:27.751Z,49.94
2019-03-18T11:57:56.337Z,49.18
2019-03-18T12:00:25.843Z,47.99
2019-03-18T12:02:55.581Z,48.08
2019-03-18T12:05:25.281Z,48.40
2019-03-18T12:07:53.876Z,48.70
2019-03-18T12:10:25.344Z,48.01
2019-03-18T12:12:53.058Z,48.88
2019-03-18T12:15:25.799Z,55.88
2019-03-18T12:17:54.693Z,51.04
2019-03-18T12:20:25.228Z,47.46
2019-03-18T12:22:53.609Z,47.03
2019-03-18T12:25:22.120Z,47.48
2019-03-18T12:27:51.011Z,48.91
2019-03-18T12:30:23.836Z,47.64
2019-03-18T12:32:52.934Z,48.12
2019-03-18T12:35:21.673Z,47.72
2019-03-18T12:37:50.535Z,48.44
2019-03-18T12:40:19.274Z,48.17
2019-03-18T12:42:47.863Z,48.41
2019-03-18T12:45:20.151Z,49.41
2019-03-18T12:47:48.993Z,50.04
2019-03-18T12:50:38.755Z,58.04
2019-03-18T12:52:52.980Z,53.11
2019-03-18T12:55:21.732Z,51.03
2019-03-18T12:57:50.287Z,51.94
2019-03-18T13:00:33.009Z,52.46
2019-03-18T13:03:01.613Z,52.32
2019-03-18T13:05:30.220Z,52.46
2019-03-18T13:07:58.817Z,52.14
2019-03-18T13:10:27.315Z,52.63
2019-03-18T13:12:55.977Z,51.79
2019-03-18T13:15:24.577Z,50.09
2019-03-18T13:17:53.203Z,49.27
2019-03-18T13:20:22.494Z,50.32
2019-03-18T13:22:53.752Z,50.93
2019-03-18T13:25:21.763Z,55.60
2019-03-18T13:27:50.382Z,50.97
2019-03-18T13:30:20.039Z,47.67
2019-03-18T13:32:48.877Z,47.94
2019-03-18T13:35:17.514Z,47.98
2019-03-18T13:37:46.030Z,49.10
2019-03-18T13:40:18.729Z,48.07
2019-03-18T13:42:47.368Z,48.73
2019-03-18T13:45:19.589Z,49.38
2019-03-18T13:47:48.251Z,49.70
2019-03-18T13:50:17.923Z,48.96
2019-03-18T13:52:46.638Z,48.73
2019-03-18T13:55:15.792Z,49.19
2019-03-18T13:57:44.531Z,49.46
2019-03-18T14:00:15.695Z,52.58
2019-03-18T14:02:44.685Z,50.71
2019-03-18T14:05:13.781Z,48.35
2019-03-18T14:07:42.439Z,48.36
2019-03-18T14:10:16.598Z,48.33
2019-03-18T14:12:45.216Z,47.89
2019-03-18T14:15:25.080Z,48.55
2019-03-18T14:17:53.590Z,50.09
2019-03-18T14:20:25.883Z,49.33
2019-03-18T14:22:54.596Z,47.17
2019-03-18T14:25:23.347Z,48.41
2019-03-18T14:27:51.933Z,47.44
2019-03-18T14:30:21.447Z,47.47
2019-03-18T14:32:50.152Z,48.46
2019-03-18T14:35:21.566Z,51.30
2019-03-18T14:37:49.232Z,48.95
2019-03-18T14:40:22.782Z,47.80
2019-03-18T14:42:51.368Z,47.99
2019-03-18T14:45:21.219Z,48.12
2019-03-18T14:47:50.131Z,48.42
2019-03-18T14:50:19.419Z,47.84
2019-03-18T14:52:48.262Z,48.49
2019-03-18T14:55:17.878Z,48.64
2019-03-18T14:57:46.455Z,48.38
2019-03-18T15:00:29.081Z,47.86
2019-03-18T15:02:57.737Z,46.43
2019-03-18T15:05:26.396Z,46.42
2019-03-18T15:07:54.993Z,47.78
2019-03-18T15:10:32.515Z,47.86
2019-03-18T15:13:01.074Z,48.79
2019-03-18T15:15:29.764Z,49.97
2019-03-18T15:17:58.425Z,51.27
2019-03-18T15:20:27.927Z,53.98
2019-03-18T15:22:56.586Z,55.25
2019-03-18T15:25:35.476Z,56.45
2019-03-18T15:28:04.109Z,56.47
2019-03-18T15:30:32.767Z,57.80
2019-03-18T15:33:01.402Z,58.36
2019-03-18T15:35:29.935Z,58.51
2019-03-18T15:37:58.550Z,58.51
2019-03-18T15:40:28.301Z,59.08
2019-03-18T15:42:56.982Z,59.62
2019-03-18T15:45:25.578Z,59.85
2019-03-18T15:47:54.136Z,59.03
2019-03-18T15:50:24.127Z,57.40
2019-03-18T15:52:52.672Z,57.20
2019-03-18T15:55:23.812Z,57.30
2019-03-18T15:57:51.560Z,56.56
2019-03-18T16:00:21.296Z,56.59
2019-03-18T16:02:49.913Z,57.29
2019-03-18T16:05:18.581Z,57.57
2019-03-18T16:07:47.150Z,58.27
2019-03-18T16:10:19.331Z,57.15
2019-03-18T16:12:48.608Z,57.14
2019-03-18T16:15:18.687Z,57.21
2019-03-18T16:17:47.286Z,57.85
2019-03-18T16:20:21.256Z,58.99
2019-03-18T16:22:49.819Z,58.98
2019-03-18T16:25:18.674Z,57.27
2019-03-18T16:27:47.333Z,55.74
2019-03-18T16:30:22.603Z,56.99
2019-03-18T16:32:51.248Z,57.00
2019-03-18T16:35:20.205Z,56.24
2019-03-18T16:37:48.716Z,55.89
2019-03-18T16:40:24.647Z,56.58
2019-03-18T16:42:53.294Z,57.27
2019-03-18T16:45:21.953Z,56.96
2019-03-18T16:47:50.613Z,57.27
2019-03-18T16:50:24.666Z,56.93
2019-03-18T16:52:53.537Z,57.43
2019-03-18T16:55:22.064Z,57.49
2019-03-18T16:57:50.914Z,58.68
2019-03-18T17:00:24.222Z,56.30
2019-03-18T17:02:52.947Z,55.13
2019-03-18T17:05:21.668Z,55.05
2019-03-18T17:07:50.286Z,56.09
2019-03-18T17:10:18.976Z,56.19
2019-03-18T17:12:47.601Z,57.31
2019-03-18T17:15:17.994Z,56.68
2019-03-18T17:17:46.535Z,56.90
2019-03-18T17:20:18.161Z,56.77
2019-03-18T17:22:49.759Z,57.21
2019-03-18T17:25:19.125Z,56.91
2019-03-18T17:27:47.712Z,57.69
2019-03-18T17:30:18.242Z,56.72
2019-03-18T17:32:47.187Z,60.68
2019-03-18T17:35:15.781Z,56.64
2019-03-18T17:37:44.367Z,56.17
2019-03-18T17:40:15.313Z,57.43
2019-03-18T17:42:43.901Z,56.86
2019-03-18T17:45:14.081Z,56.88
2019-03-18T17:47:42.634Z,57.30
2019-03-18T17:50:14.192Z,57.36
2019-03-18T17:52:42.771Z,57.43
2019-03-18T17:55:11.378Z,57.56
2019-03-18T17:57:39.879Z,57.79
2019-03-18T18:00:17.210Z,56.74
2019-03-18T18:02:45.888Z,57.24
2019-03-18T18:05:14.986Z,57.78
2019-03-18T18:07:43.637Z,61.44
2019-03-18T18:10:12.449Z,58.62
2019-03-18T18:12:41.159Z,57.53
2019-03-18T18:15:13.018Z,56.90
2019-03-18T18:17:41.633Z,56.49
2019-03-18T18:20:16.653Z,57.53
2019-03-18T18:22:45.251Z,57.95
2019-03-18T18:25:14.456Z,58.65
2019-03-18T18:27:43.055Z,58.65
2019-03-18T18:30:16.610Z,58.75
2019-03-18T18:32:45.163Z,58.33
2019-03-18T18:35:14.053Z,56.98
2019-03-18T18:37:43.757Z,58.69
2019-03-18T18:40:23.588Z,58.08
2019-03-18T18:42:52.543Z,63.13
2019-03-18T18:45:21.443Z,58.96
2019-03-18T18:47:50.047Z,57.29
2019-03-18T18:50:18.679Z,57.24
2019-03-18T18:52:47.269Z,56.97
2019-03-18T18:55:15.955Z,58.00
2019-03-18T18:57:44.655Z,57.93
2019-03-18T19:00:16.409Z,58.51
2019-03-18T19:02:48.002Z,58.89
2019-03-18T19:05:17.417Z,59.45
2019-03-18T19:07:46.256Z,59.35
2019-03-18T19:10:16.190Z,58.60
2019-03-18T19:12:44.682Z,58.85
2019-03-18T19:15:31.282Z,59.19
2019-03-18T19:18:00.000Z,60.96
2019-03-18T19:20:28.564Z,59.58
2019-03-18T19:22:57.096Z,58.06
2019-03-18T19:25:25.795Z,58.82
2019-03-18T19:27:54.782Z,58.46
2019-03-18T19:30:24.277Z,58.55
2019-03-18T19:32:52.951Z,58.89
2019-03-18T19:35:22.568Z,59.27
2019-03-18T19:37:51.131Z,59.37
2019-03-18T19:40:26.195Z,60.32
2019-03-18T19:42:54.786Z,59.53
2019-03-18T19:45:23.783Z,60.16
2019-03-18T19:47:53.456Z,59.50
2019-03-18T19:50:26.879Z,59.79
2019-03-18T19:52:55.518Z,62.32
2019-03-18T19:55:24.169Z,61.39
2019-03-18T19:57:52.817Z,60.04
2019-03-18T20:00:23.101Z,59.40
2019-03-18T20:02:51.782Z,59.78
2019-03-18T20:05:20.432Z,60.26
2019-03-18T20:07:49.045Z,59.93
2019-03-18T20:10:18.951Z,60.22
2019-03-18T20:12:47.642Z,60.96
2019-03-18T20:15:19.658Z,61.37
2019-03-18T20:17:48.343Z,61.30
2019-03-18T20:20:19.001Z,60.94
2019-03-18T20:22:47.720Z,61.05
2019-03-18T20:25:16.819Z,60.60
2019-03-18T20:27:45.454Z,61.25
2019-03-18T20:30:21.772Z,63.41
2019-03-18T20:32:50.554Z,60.03
2019-03-18T20:35:22.834Z,59.41
2019-03-18T20:37:52.042Z,59.97
2019-03-18T20:40:21.477Z,60.33
2019-03-18T20:42:50.103Z,61.11
2019-03-18T20:45:25.796Z,61.77
2019-03-18T20:47:54.406Z,63.09
2019-03-18T20:50:26.311Z,63.47
2019-03-18T20:52:55.002Z,63.38
2019-03-18T20:55:23.519Z,63.56
2019-03-18T20:57:52.222Z,63.56
2019-03-18T21:00:24.337Z,63.35
2019-03-18T21:02:53.129Z,63.57
2019-03-18T21:05:21.716Z,67.37
2019-03-18T21:07:50.536Z,64.12
2019-03-18T21:10:22.144Z,62.40
2019-03-18T21:12:50.795Z,63.31
2019-03-18T21:15:19.514Z,64.29
2019-03-18T21:17:48.085Z,65.69
2019-03-18T21:20:18.760Z,66.97
2019-03-18T21:22:47.343Z,66.71
2019-03-18T21:25:15.976Z,66.20
2019-03-18T21:27:44.632Z,65.64
2019-03-18T21:30:21.974Z,65.56
2019-03-18T21:32:50.749Z,65.60
2019-03-18T21:35:19.549Z,65.83
2019-03-18T21:37:48.083Z,65.82
2019-03-18T21:40:21.245Z,69.84
2019-03-18T21:42:49.864Z,65.57
2019-03-18T21:45:23.685Z,63.58
2019-03-18T21:47:52.615Z,64.11
2019-03-18T21:50:21.286Z,65.79
2019-03-18T21:52:49.897Z,67.21
2019-03-18T21:55:18.407Z,68.40
2019-03-18T21:57:47.085Z,68.36
2019-03-18T22:00:23.009Z,67.86
2019-03-18T22:02:51.636Z,66.93
2019-03-18T22:05:20.279Z,66.24
2019-03-18T22:07:48.883Z,66.08
2019-03-18T22:10:21.325Z,66.36
2019-03-18T22:12:50.056Z,66.41
2019-03-18T22:15:18.648Z,68.93
2019-03-18T22:17:47.231Z,68.32
2019-03-18T22:20:16.635Z,67.26
2019-03-18T22:22:45.324Z,65.28
2019-03-18T22:25:14.720Z,67.48
2019-03-18T22:27:43.329Z,68.02
2019-03-18T22:30:15.963Z,68.78
2019-03-18T22:32:45.085Z,68.76
2019-03-18T22:35:13.771Z,68.77
2019-03-18T22:37:42.581Z,68.40
2019-03-18T22:40:15.251Z,68.11
2019-03-18T22:42:44.233Z,68.17
2019-03-18T22:45:13.721Z,68.04
2019-03-18T22:47:42.341Z,67.58
2019-03-18T22:50:13.819Z,69.56
2019-03-18T22:52:42.859Z,73.96
2019-03-18T22:55:14.883Z,68.66
2019-03-18T22:57:43.574Z,65.93
2019-03-18T23:00:17.047Z,66.38
2019-03-18T23:02:46.647Z,68.57
2019-03-18T23:05:15.639Z,69.26
2019-03-18T23:07:44.272Z,70.35
2019-03-18T23:10:12.985Z,69.52
2019-03-18T23:12:41.619Z,69.42
2019-03-18T23:15:10.291Z,68.70
2019-03-18T23:17:39.001Z,68.15
2019-03-18T23:20:08.431Z,67.75
2019-03-18T23:22:36.939Z,67.38
2019-03-18T23:25:08.209Z,67.22
2019-03-18T23:27:37.031Z,77.22
2019-03-18T23:30:13.018Z,69.71
2019-03-18T23:32:41.646Z,67.92
2019-03-18T23:35:10.655Z,67.42
2019-03-18T23:37:39.580Z,68.94
2019-03-18T23:40:10.162Z,70.19
2019-03-18T23:42:38.855Z,71.17
2019-03-18T23:45:09.059Z,70.43
2019-03-18T23:47:37.624Z,69.95
2019-03-18T23:50:13.689Z,70.31
2019-03-18T23:52:42.388Z,69.54
2019-03-18T23:55:18.911Z,68.79
2019-03-18T23:57:41.626Z,68.80
